Time;durP1;ratioP1;P1;durP2;ratioP2;P2;SDS_P1;SDS_P2;PMS_P1;PMS_P2;Temp;Humidity;BMP_temperature;BMP_pressure;BME280_temperature;BME280_humidity;BME280_pressure;Samples;Min_cycle;Max_cycle;Signal;HPM_P1;HPM_P2
2023/05/03 00:01:54;;;;;;;5.37;4.37;;;;;;;10.93;nan;98908.69;4993982;28;20211;-77
2023/05/03 00:04:22;;;;;;;4.57;4.13;;;;;;;10.97;nan;98907.28;4993904;28;20233;-77
2023/05/03 00:06:48;;;;;;;4.37;3.97;;;;;;;10.84;nan;98912.53;4993900;28;20231;-77
2023/05/03 00:09:15;;;;;;;6.63;4.40;;;;;;;10.72;nan;98912.31;4993552;28;20231;-77
2023/05/03 00:11:41;;;;;;;5.07;4.00;;;;;;;10.79;nan;98920.31;4993964;28;20211;-77
2023/05/03 00:14:07;;;;;;;4.37;3.87;;;;;;;10.78;nan;98913.34;4993901;28;20212;-76
2023/05/03 00:16:34;;;;;;;6.37;4.23;;;;;;;10.65;nan;98907.97;4993850;28;20234;-76
2023/05/03 00:19:00;;;;;;;4.00;3.60;;;;;;;10.80;nan;98912.13;4993912;28;20209;-77
2023/05/03 00:21:27;;;;;;;4.40;3.90;;;;;;;10.64;nan;98906.34;4993882;28;20215;-77
2023/05/03 00:23:53;;;;;;;5.73;3.90;;;;;;;10.78;nan;98913.34;4993396;28;20603;-77
2023/05/03 00:26:21;;;;;;;6.07;3.90;;;;;;;10.60;nan;98905.91;4993768;28;20227;-77
2023/05/03 00:28:47;;;;;;;3.97;3.57;;;;;;;10.69;nan;98919.88;4994440;28;20215;-77
2023/05/03 00:31:14;;;;;;;4.57;4.17;;;;;;;10.61;nan;98922.69;4993703;28;20207;-77
2023/05/03 00:33:40;;;;;;;4.20;3.80;;;;;;;10.68;nan;98911.06;4993718;28;20214;-77
2023/05/03 00:36:08;;;;;;;3.87;3.43;;;;;;;10.71;nan;98905.34;4993657;28;20277;-77
2023/05/03 00:38:35;;;;;;;4.30;3.90;;;;;;;10.63;nan;98905.50;4993779;28;20242;-77
2023/05/03 00:41:02;;;;;;;4.40;3.53;;;;;;;10.54;nan;98906.69;4993371;28;20663;-77
2023/05/03 00:43:29;;;;;;;5.00;3.83;;;;;;;10.69;nan;98914.53;4993652;28;20214;-77
2023/05/03 00:45:55;;;;;;;6.07;4.23;;;;;;;10.55;nan;98915.50;4996252;28;20227;-77
2023/05/03 00:48:21;;;;;;;4.80;3.80;;;;;;;10.61;nan;98899.59;4997088;28;20211;-77
2023/05/03 00:50:49;;;;;;;4.23;3.83;;;;;;;10.62;nan;98900.38;4996694;28;20613;-77
2023/05/03 00:53:16;;;;;;;4.37;3.87;;;;;;;10.54;nan;98895.25;4997053;28;20218;-77
2023/05/03 00:55:44;;;;;;;5.43;4.00;;;;;;;10.55;nan;98892.38;4996586;28;20231;-77
2023/05/03 00:58:10;;;;;;;4.70;4.00;;;;;;;10.43;nan;98895.81;4996951;28;20295;-77
2023/05/03 01:00:37;;;;;;;4.70;4.20;;;;;;;10.25;nan;98892.84;4996933;28;20554;-76
2023/05/03 01:03:03;;;;;;;5.07;4.10;;;;;;;10.32;nan;98896.38;4996610;28;20215;-76
2023/05/03 01:05:38;;;;;;;5.30;4.10;;;;;;;10.29;nan;98902.09;4996387;28;20231;-77
2023/05/03 01:08:26;;;;;;;4.83;4.33;;;;;;;10.33;nan;98898.03;4996597;28;20214;-77
2023/05/03 01:11:06;;;;;;;4.90;4.40;;;;;;;10.18;nan;98892.03;4996678;28;20215;-77
2023/05/03 01:13:42;;;;;;;5.83;4.33;;;;;;;10.14;nan;98890.75;4996657;28;20194;-77
2023/05/03 01:16:24;;;;;;;4.67;4.13;;;;;;;9.99;nan;98888.19;4996594;28;20234;-77
2023/05/03 01:18:56;;;;;;;5.53;4.50;;;;;;;9.95;nan;98897.56;4996349;28;20654;-77
2023/05/03 01:21:23;;;;;;;4.47;4.07;;;;;;;10.01;nan;98888.78;4996564;28;20223;-77
2023/05/03 01:24:17;;;;;;;5.20;4.30;;;;;;;10.01;nan;98885.34;4996542;28;20207;-77
2023/05/03 01:26:44;;;;;;;7.50;4.20;;;;;;;9.89;nan;98889.53;4979865;28;20226;-77
2023/05/03 01:29:10;;;;;;;5.23;4.73;;;;;;;9.92;nan;98884.66;4995994;28;20233;-77
2023/05/03 01:31:51;;;;;;;4.87;4.40;;;;;;;9.90;nan;98876.06;4996021;28;20693;-77
2023/05/03 01:34:50;;;;;;;6.50;4.70;;;;;;;9.82;nan;98878.06;4996042;28;20658;-77
2023/05/03 01:37:17;;;;;;;6.80;4.90;;;;;;;9.73;nan;98873.91;4996332;28;20191;-77
2023/05/03 01:40:03;;;;;;;6.10;4.63;;;;;;;9.64;nan;98886.50;4996154;28;20204;-77
2023/05/03 01:42:30;;;;;;;6.53;5.30;;;;;;;9.77;nan;98880.47;4996208;28;20246;-77
2023/05/03 01:44:58;;;;;;;6.70;4.90;;;;;;;9.67;nan;98880.81;4995702;28;20670;-77
2023/05/03 01:47:25;;;;;;;5.60;5.03;;;;;;;9.71;nan;98874.09;4978826;28;20281;-77
2023/05/03 01:49:51;;;;;;;6.53;5.50;;;;;;;9.64;nan;98875.06;4995959;28;20227;-77
2023/05/03 01:52:18;;;;;;;5.87;4.80;;;;;;;9.78;nan;98874.16;4995877;28;20218;-77
2023/05/03 01:54:44;;;;;;;6.83;5.50;;;;;;;9.75;nan;98866.56;4995596;28;20568;-77
2023/05/03 01:57:11;;;;;;;7.97;5.07;;;;;;;9.64;nan;98869.75;4995586;28;20231;-78
2023/05/03 01:59:37;;;;;;;5.30;4.80;;;;;;;9.65;nan;98871.41;4995847;28;20199;-77
2023/05/03 02:02:03;;;;;;;5.97;5.33;;;;;;;9.59;nan;98872.97;4995748;28;20207;-77
2023/05/03 02:04:30;;;;;;;6.67;5.47;;;;;;;9.66;nan;98871.22;4995691;28;20215;-77
2023/05/03 02:06:56;;;;;;;7.70;5.43;;;;;;;9.62;nan;98879.75;4995646;28;20227;-77
2023/05/03 02:09:22;;;;;;;5.70;5.10;;;;;;;9.64;nan;98875.06;4995259;28;20231;-76
2023/05/03 02:11:49;;;;;;;6.43;5.60;;;;;;;9.69;nan;98877.97;4995631;28;20207;-77
2023/05/03 02:14:15;;;;;;;6.27;4.87;;;;;;;9.60;nan;98879.13;4995799;28;20210;-77
2023/05/03 02:16:42;;;;;;;8.03;5.67;;;;;;;9.57;nan;98874.19;4995452;28;20234;-77
2023/05/03 02:19:08;;;;;;;7.87;5.40;;;;;;;9.59;nan;98880.94;4995445;28;20203;-77
2023/05/03 02:21:36;;;;;;;6.10;5.57;;;;;;;9.50;nan;98873.34;4995083;28;20218;-77
2023/05/03 02:24:02;;;;;;;5.63;4.90;;;;;;;9.51;nan;98878.44;4995162;28;20212;-77
2023/05/03 02:26:29;;;;;;;6.57;5.60;;;;;;;9.44;nan;98871.44;4994956;28;20590;-77
2023/05/03 02:28:56;;;;;;;6.27;5.50;;;;;;;9.38;nan;98877.50;4995222;28;20251;-77
2023/05/03 02:31:24;;;;;;;6.77;5.10;;;;;;;9.62;nan;98879.75;4995151;28;20231;-77
2023/05/03 02:33:50;;;;;;;7.90;5.20;;;;;;;9.53;nan;98870.28;4994864;28;20215;-77
2023/05/03 02:36:16;;;;;;;6.47;5.50;;;;;;;9.33;nan;98866.66;4995323;28;20227;-77
2023/05/03 02:38:43;;;;;;;6.47;5.50;;;;;;;9.36;nan;98874.22;4995037;28;20211;-76
2023/05/03 02:41:09;;;;;;;6.53;5.70;;;;;;;9.17;nan;98870.38;4994994;28;20203;-77
2023/05/03 02:43:35;;;;;;;7.13;5.63;;;;;;;9.20;nan;98871.84;4995181;28;20297;-77
2023/05/03 02:46:02;;;;;;;6.77;5.70;;;;;;;9.25;nan;98870.25;4995048;28;20227;-77
2023/05/03 02:48:28;;;;;;;6.60;5.03;;;;;;;9.31;nan;98866.84;4994907;28;20215;-77
2023/05/03 02:50:55;;;;;;;7.30;6.07;;;;;;;9.08;nan;98862.75;4994742;28;20223;-76
2023/05/03 02:53:21;;;;;;;6.60;5.97;;;;;;;9.22;nan;98859.19;4994754;28;20226;-76
2023/05/03 02:55:47;;;;;;;7.83;5.77;;;;;;;9.09;nan;98853.78;4994659;28;20223;-77
2023/05/03 02:58:14;;;;;;;8.13;5.70;;;;;;;9.08;nan;98857.44;4994407;28;20258;-77
2023/05/03 03:00:40;;;;;;;6.40;5.80;;;;;;;8.96;nan;98870.38;4994667;28;20258;-77
2023/05/03 03:03:07;;;;;;;7.93;6.17;;;;;;;9.00;nan;98860.22;4994635;28;20207;-77
2023/05/03 03:05:33;;;;;;;7.13;6.13;;;;;;;9.02;nan;98867.00;4994514;28;20226;-77
2023/05/03 03:07:59;;;;;;;8.37;6.77;;;;;;;8.89;nan;98852.75;4993598;28;20226;-77
2023/05/03 03:10:26;;;;;;;12.70;6.43;;;;;;;8.81;nan;98866.13;4994439;28;20231;-77
2023/05/03 03:12:52;;;;;;;7.23;6.07;;;;;;;8.80;nan;98869.81;4993980;28;20207;-78
2023/05/03 03:15:18;;;;;;;7.90;6.13;;;;;;;8.71;nan;98862.97;4994146;28;20227;-77
2023/05/03 03:17:45;;;;;;;7.60;6.80;;;;;;;8.77;nan;98864.88;4994321;28;20290;-77
2023/05/03 03:20:12;;;;;;;7.37;6.67;;;;;;;8.84;nan;98871.06;4994162;28;20299;-77
2023/05/03 03:22:39;;;;;;;6.73;6.13;;;;;;;8.87;nan;98871.50;4994160;28;20239;-77
2023/05/03 03:25:06;;;;;;;7.03;6.33;;;;;;;8.90;nan;98870.31;4993779;28;20579;-77
2023/05/03 03:27:33;;;;;;;9.50;6.87;;;;;;;8.81;nan;98868.78;4994242;28;20237;-77
2023/05/03 03:29:59;;;;;;;7.60;6.80;;;;;;;8.79;nan;98871.63;4994184;28;20219;-77
2023/05/03 03:32:26;;;;;;;7.57;6.53;;;;;;;8.76;nan;98868.53;4993745;28;20214;-77
2023/05/03 03:34:52;;;;;;;7.40;6.27;;;;;;;8.77;nan;98870.16;4993614;28;20211;-77
2023/05/03 03:37:20;;;;;;;7.93;6.73;;;;;;;8.71;nan;98871.75;4993772;28;20226;-77
2023/05/03 03:39:47;;;;;;;10.53;7.30;;;;;;;8.69;nan;98872.94;4993906;28;20218;-78
2023/05/03 03:42:15;;;;;;;8.00;6.83;;;;;;;8.67;nan;98874.94;4993676;28;20685;-77
2023/05/03 03:44:41;;;;;;;8.83;7.03;;;;;;;8.73;nan;98879.53;4993887;28;20218;-77
2023/05/03 03:47:07;;;;;;;11.43;7.27;;;;;;;8.65;nan;98877.00;4993538;28;20231;-77
2023/05/03 03:49:35;;;;;;;7.90;7.10;;;;;;;8.63;nan;98876.34;4993756;28;20207;-77
2023/05/03 03:52:01;;;;;;;8.87;7.43;;;;;;;8.61;nan;98881.00;4993712;28;20675;-77
2023/05/03 03:54:27;;;;;;;8.73;7.57;;;;;;;8.69;nan;98888.88;4993573;28;20254;-77
2023/05/03 03:56:54;;;;;;;9.87;7.10;;;;;;;8.67;nan;98881.09;4993418;28;20732;-77
2023/05/03 03:59:20;;;;;;;9.40;7.40;;;;;;;8.52;nan;98884.78;4994047;28;20211;-77
2023/05/03 04:01:46;;;;;;;9.13;7.23;;;;;;;8.58;nan;98884.03;4993681;28;20199;-77
2023/05/03 04:04:13;;;;;;;8.20;7.40;;;;;;;8.52;nan;98882.13;4993738;28;20298;-77
2023/05/03 04:06:39;;;;;;;9.27;6.97;;;;;;;8.56;nan;98883.41;4993201;28;20709;-77
2023/05/03 04:09:06;;;;;;;9.00;7.47;;;;;;;8.54;nan;98882.75;4993452;28;20302;-77
2023/05/03 04:11:32;;;;;;;8.87;7.30;;;;;;;8.52;nan;98892.72;4993320;28;20698;-78
2023/05/03 04:13:59;;;;;;;8.13;6.90;;;;;;;8.65;nan;98898.19;4993732;28;20693;-77
2023/05/03 04:16:25;;;;;;;10.40;7.77;;;;;;;8.48;nan;98902.06;4993624;28;20282;-78
2023/05/03 04:18:52;;;;;;;10.27;8.07;;;;;;;8.45;nan;98905.06;4994537;28;20294;-77
2023/05/03 04:21:18;;;;;;;9.87;7.27;;;;;;;8.48;nan;98905.53;4997311;28;20200;-77
2023/05/03 04:23:45;;;;;;;9.10;7.57;;;;;;;8.62;nan;98907.34;4997259;28;20725;-77
2023/05/03 04:26:11;;;;;;;12.53;7.73;;;;;;;8.57;nan;98903.59;4997380;28;20227;-78
2023/05/03 04:28:38;;;;;;;10.67;8.00;;;;;;;8.53;nan;98910.25;4997361;28;20302;-77
2023/05/03 04:31:05;;;;;;;12.77;8.30;;;;;;;8.59;nan;98920.13;4997002;28;20231;-77
2023/05/03 04:33:31;;;;;;;10.70;8.57;;;;;;;8.53;nan;98916.41;4997288;28;20203;-77
2023/05/03 04:35:57;;;;;;;10.60;8.40;;;;;;;8.55;nan;98913.56;4996805;28;20227;-76
2023/05/03 04:38:24;;;;;;;9.87;8.37;;;;;;;8.49;nan;98920.41;4996720;28;20218;-77
2023/05/03 04:40:50;;;;;;;10.30;8.77;;;;;;;8.67;nan;98917.38;4997079;28;20234;-77
2023/05/03 04:43:17;;;;;;;11.60;9.20;;;;;;;8.57;nan;98912.38;4996813;28;20674;-77
2023/05/03 04:45:43;;;;;;;13.67;8.37;;;;;;;8.75;nan;98923.41;4996472;28;20223;-77
2023/05/03 04:48:09;;;;;;;10.97;8.67;;;;;;;8.68;nan;98916.34;4996910;28;20217;-77
2023/05/03 04:50:36;;;;;;;12.57;9.27;;;;;;;8.60;nan;98919.94;4996879;28;20223;-77
2023/05/03 04:53:02;;;;;;;10.77;9.43;;;;;;;8.66;nan;98921.88;4996740;28;20203;-77
2023/05/03 04:55:29;;;;;;;12.20;9.07;;;;;;;8.73;nan;98925.41;4996602;28;20231;-73
2023/05/03 04:57:56;;;;;;;10.77;9.00;;;;;;;8.77;nan;98921.38;4996367;28;20699;-72
2023/05/03 05:00:23;;;;;;;13.30;8.23;;;;;;;9.15;nan;98925.44;4996303;28;20203;-72
2023/05/03 05:02:50;;;;;;;11.00;8.77;;;;;;;9.14;nan;98926.47;4996705;28;20567;-72
2023/05/03 05:05:17;;;;;;;12.13;8.60;;;;;;;9.13;nan;98934.59;4996457;28;20283;-72
2023/05/03 05:07:43;;;;;;;9.73;8.73;;;;;;;9.37;nan;98927.09;4996472;28;20211;-73
2023/05/03 05:10:10;;;;;;;11.73;8.60;;;;;;;9.29;nan;98931.72;4996615;28;20212;-73
2023/05/03 05:12:36;;;;;;;11.47;8.87;;;;;;;9.36;nan;98930.78;4996545;28;20207;-73
2023/05/03 05:15:03;;;;;;;10.63;8.43;;;;;;;9.27;nan;98936.38;4996335;28;20211;-75
2023/05/03 05:17:29;;;;;;;9.67;8.67;;;;;;;9.32;nan;98934.00;4996477;28;20229;-76
2023/05/03 05:19:56;;;;;;;12.17;9.10;;;;;;;9.14;nan;98937.06;4996330;28;20222;-76
2023/05/03 05:22:22;;;;;;;10.30;9.07;;;;;;;9.31;nan;98935.84;4995913;28;20314;-76
2023/05/03 05:24:48;;;;;;;10.07;8.70;;;;;;;9.13;nan;98934.59;4996133;28;20208;-76
2023/05/03 05:27:15;;;;;;;11.37;8.70;;;;;;;9.48;nan;98936.41;4995845;28;20223;-77
2023/05/03 05:29:41;;;;;;;10.53;8.70;;;;;;;9.28;nan;98940.69;4995474;28;20576;-77
2023/05/03 05:32:07;;;;;;;12.37;8.83;;;;;;;9.49;nan;98935.38;4995277;28;20710;-76
2023/05/03 05:34:34;;;;;;;11.93;8.93;;;;;;;9.56;nan;98938.91;4996316;28;20215;-77
2023/05/03 05:37:00;;;;;;;11.33;9.53;;;;;;;9.64;nan;98947.56;4995405;28;20238;-76
2023/05/03 05:39:27;;;;;;;11.10;8.97;;;;;;;9.75;nan;98944.41;4995430;28;20215;-77
2023/05/03 05:41:53;;;;;;;10.63;9.23;;;;;;;9.93;nan;98938.59;4995803;28;20246;-77
2023/05/03 05:44:19;;;;;;;11.20;8.43;;;;;;;9.89;nan;98938.19;4995779;28;20210;-77
2023/05/03 05:46:46;;;;;;;12.80;9.47;;;;;;;9.05;nan;98938.22;4995690;28;20230;-77
2023/05/03 05:49:13;;;;;;;10.77;9.63;;;;;;;9.26;nan;98940.06;4995265;28;20210;-77
2023/05/03 05:51:40;;;;;;;10.80;9.27;;;;;;;9.49;nan;98940.69;4995803;28;20265;-78
2023/05/03 05:54:06;;;;;;;10.67;9.50;;;;;;;9.54;nan;98936.44;4995604;28;20207;-77
2023/05/03 05:56:33;;;;;;;12.13;9.23;;;;;;;9.48;nan;98939.03;4995422;28;20223;-77
2023/05/03 05:58:59;;;;;;;10.23;9.13;;;;;;;9.59;nan;98943.84;4995608;28;20213;-77
2023/05/03 06:01:26;;;;;;;12.13;9.10;;;;;;;9.57;nan;98940.56;4995553;28;20650;-77
2023/05/03 06:03:52;;;;;;;11.73;9.00;;;;;;;9.97;nan;98939.88;4995175;28;20247;-77
2023/05/03 06:06:19;;;;;;;13.80;10.20;;;;;;;10.02;nan;98940.09;4995539;28;20228;-78
2023/05/03 06:08:48;;;;;;;11.00;8.90;;;;;;;9.69;nan;98931.06;4995092;28;20254;-78
2023/05/03 06:11:16;;;;;;;10.50;8.90;;;;;;;9.95;nan;98936.56;4995162;28;20227;-78
2023/05/03 06:13:42;;;;;;;13.03;9.63;;;;;;;10.27;nan;98930.72;4994654;28;20214;-77
2023/05/03 06:16:10;;;;;;;11.50;9.57;;;;;;;10.19;nan;98936.16;4995495;28;20246;-76
2023/05/03 06:18:37;;;;;;;10.70;9.50;;;;;;;10.32;nan;98930.94;4995006;28;20218;-76
2023/05/03 06:21:04;;;;;;;10.30;8.73;;;;;;;10.63;nan;98933.94;4995191;28;20214;-77
2023/05/03 06:23:32;;;;;;;10.23;9.07;;;;;;;10.70;nan;98924.16;4995003;28;20211;-77
2023/05/03 06:25:58;;;;;;;11.77;9.20;;;;;;;10.55;nan;98928.81;4995208;28;20314;-76
2023/05/03 06:28:24;;;;;;;12.10;9.67;;;;;;;10.53;nan;98931.66;4994966;28;20298;-76
2023/05/03 06:30:51;;;;;;;10.77;9.37;;;;;;;10.76;nan;98928.69;4995232;28;20249;-76
2023/05/03 06:33:17;;;;;;;10.70;9.57;;;;;;;10.75;nan;98932.34;4995105;28;20218;-76
2023/05/03 06:35:45;;;;;;;11.17;9.47;;;;;;;10.83;nan;98938.34;4995012;28;20227;-76
2023/05/03 06:38:12;;;;;;;10.67;9.57;;;;;;;10.94;nan;98934.25;4994510;28;20683;-73
2023/05/03 06:40:40;;;;;;;12.43;10.17;;;;;;;10.99;nan;98940.63;4994846;28;20215;-74
2023/05/03 06:43:06;;;;;;;14.60;9.67;;;;;;;10.91;nan;98935.50;4994816;28;20663;-73
2023/05/03 06:45:33;;;;;;;13.73;10.03;;;;;;;10.87;nan;98928.13;4994437;28;20219;-72
2023/05/03 06:47:59;;;;;;;12.23;9.60;;;;;;;10.83;nan;98934.84;4994132;28;20569;-72
2023/05/03 06:50:26;;;;;;;10.63;9.33;;;;;;;10.92;nan;98936.31;4994453;28;20199;-72
2023/05/03 06:52:52;;;;;;;11.93;10.23;;;;;;;10.87;nan;98944.88;4994305;28;20204;-72
2023/05/03 06:55:18;;;;;;;11.17;9.80;;;;;;;10.89;nan;98934.03;4994318;28;20215;-72
2023/05/03 06:57:46;;;;;;;10.77;8.97;;;;;;;11.01;nan;98940.44;4994448;28;20697;-75
2023/05/03 07:00:13;;;;;;;11.87;9.80;;;;;;;11.03;nan;98930.41;4994938;28;20270;-74
2023/05/03 07:02:40;;;;;;;13.23;10.50;;;;;;;11.21;nan;98929.84;4994973;28;20206;-74
2023/05/03 07:05:06;;;;;;;13.43;10.33;;;;;;;10.90;nan;98931.19;4994280;28;20688;-74
2023/05/03 07:07:33;;;;;;;12.27;9.83;;;;;;;11.10;nan;98926.72;4994537;28;20250;-74
2023/05/03 07:10:00;;;;;;;12.40;10.27;;;;;;;11.35;nan;98926.19;4994913;28;20199;-73
2023/05/03 07:12:27;;;;;;;13.13;10.40;;;;;;;11.35;nan;98926.19;4994487;28;20240;-74
2023/05/03 07:14:56;;;;;;;13.27;9.43;;;;;;;11.18;nan;98921.22;4994432;28;20215;-74
2023/05/03 07:17:23;;;;;;;11.43;10.20;;;;;;;11.08;nan;98914.66;4993913;28;20222;-73
2023/05/03 07:19:51;;;;;;;10.50;9.33;;;;;;;11.39;nan;98914.91;4993970;28;20213;-74
2023/05/03 07:22:19;;;;;;;10.47;9.37;;;;;;;11.32;nan;98912.25;4993945;28;20199;-73
2023/05/03 07:24:45;;;;;;;11.43;9.37;;;;;;;11.51;nan;98904.47;4994368;28;20211;-74
2023/05/03 07:27:14;;;;;;;11.10;9.90;;;;;;;11.37;nan;98909.00;4994577;28;20243;-74
2023/05/03 07:29:40;;;;;;;10.80;9.57;;;;;;;11.62;nan;98904.72;4994936;28;20233;-74
2023/05/03 07:32:07;;;;;;;10.13;9.10;;;;;;;11.68;nan;98906.59;4994081;28;20223;-73
2023/05/03 07:34:33;;;;;;;10.93;9.83;;;;;;;11.65;nan;98903.50;4993916;28;20568;-73
2023/05/03 07:36:59;;;;;;;11.77;9.77;;;;;;;12.10;nan;98899.97;4993472;28;20241;-73
2023/05/03 07:39:26;;;;;;;10.47;9.40;;;;;;;11.82;nan;98907.38;4993805;28;20201;-73
2023/05/03 07:41:52;;;;;;;9.60;8.60;;;;;;;11.83;nan;98896.53;4993604;28;20200;-74
2023/05/03 07:44:18;;;;;;;8.53;7.73;;;;;;;11.99;nan;98900.63;4993601;28;20210;-73
2023/05/03 07:46:45;;;;;;;11.77;8.67;;;;;;;12.47;nan;98902.75;4993475;28;20229;-74
2023/05/03 07:49:11;;;;;;;9.20;8.27;;;;;;;12.06;nan;98894.25;4994242;28;20207;-73
2023/05/03 07:51:38;;;;;;;10.63;9.63;;;;;;;12.07;nan;98895.88;4993890;28;20228;-74
2023/05/03 07:54:05;;;;;;;11.90;9.43;;;;;;;12.23;nan;98894.63;4995702;28;20209;-75
2023/05/03 07:56:31;;;;;;;10.00;8.33;;;;;;;12.49;nan;98889.22;4998433;28;20230;-74
2023/05/03 07:58:58;;;;;;;10.10;9.00;;;;;;;12.18;nan;98887.25;4998185;28;20215;-74
2023/05/03 08:01:24;;;;;;;9.80;8.80;;;;;;;12.68;nan;98883.81;4997915;28;20688;-73
2023/05/03 08:03:50;;;;;;;10.33;8.93;;;;;;;12.48;nan;98887.56;4998586;28;20205;-74
2023/05/03 08:06:18;;;;;;;10.77;8.70;;;;;;;12.26;nan;98889.66;4997862;28;20232;-74
2023/05/03 08:08:44;;;;;;;12.90;8.47;;;;;;;12.36;nan;98887.41;4998021;28;20524;-74
2023/05/03 08:11:11;;;;;;;8.63;7.83;;;;;;;12.50;nan;98891.66;4997817;28;20725;-74
2023/05/03 08:13:38;;;;;;;11.07;8.60;;;;;;;12.65;nan;98892.22;4997910;28;20264;-75
2023/05/03 08:16:05;;;;;;;16.77;9.17;;;;;;;12.87;nan;98884.72;4997984;28;20245;-75
2023/05/03 08:18:31;;;;;;;9.60;8.60;;;;;;;12.42;nan;98888.41;4997900;28;20225;-73
2023/05/03 08:20:58;;;;;;;9.87;8.87;;;;;;;13.02;nan;98890.66;4997790;28;20211;-74
2023/05/03 08:23:25;;;;;;;11.13;8.63;;;;;;;12.89;nan;98891.47;4997705;28;20229;-74
2023/05/03 08:25:51;;;;;;;9.90;8.47;;;;;;;12.75;nan;98887.25;4997632;28;20227;-74
2023/05/03 08:28:18;;;;;;;11.43;9.43;;;;;;;12.73;nan;98886.66;4997616;28;20220;-75
2023/05/03 08:30:44;;;;;;;10.10;8.67;;;;;;;12.87;nan;98888.22;4997695;28;20237;-74
2023/05/03 08:33:10;;;;;;;9.60;8.60;;;;;;;12.99;nan;98897.22;4997866;28;20210;-75
2023/05/03 08:35:37;;;;;;;9.90;8.90;;;;;;;12.90;nan;98893.13;4997490;28;20631;-75
2023/05/03 08:38:04;;;;;;;9.37;8.57;;;;;;;13.13;nan;98901.47;4997428;28;20226;-73
2023/05/03 08:40:34;;;;;;;9.90;8.90;;;;;;;13.38;nan;98896.16;4997471;28;20258;-74
2023/05/03 08:43:07;;;;;;;9.73;8.73;;;;;;;13.33;nan;98893.28;4997396;28;20545;-74
2023/05/03 08:45:34;;;;;;;10.57;9.57;;;;;;;12.77;nan;98889.69;4997614;28;20288;-74
2023/05/03 08:48:01;;;;;;;9.73;8.77;;;;;;;13.23;nan;98892.97;4997218;28;20565;-74
2023/05/03 08:50:28;;;;;;;10.90;9.10;;;;;;;13.12;nan;98894.47;4997328;28;20214;-73
2023/05/03 08:52:54;;;;;;;9.57;8.63;;;;;;;13.62;nan;98904.19;4997215;28;20227;-74
2023/05/03 08:55:21;;;;;;;10.47;8.73;;;;;;;13.55;nan;98889.22;4997283;28;20253;-74
2023/05/03 08:57:47;;;;;;;9.83;8.97;;;;;;;13.87;nan;98899.66;4997485;28;20211;-74
2023/05/03 09:00:14;;;;;;;9.83;8.80;;;;;;;13.85;nan;98895.56;4996984;28;20211;-74
2023/05/03 09:02:41;;;;;;;10.23;9.00;;;;;;;13.58;nan;98896.81;4997203;28;20200;-74
2023/05/03 09:05:16;;;;;;;9.50;8.43;;;;;;;13.60;nan;98894.75;4995558;28;20562;-74
2023/05/03 09:08:03;;;;;;;9.70;8.80;;;;;;;13.86;nan;98902.56;4997090;28;20211;-74
2023/05/03 09:10:30;;;;;;;9.50;8.57;;;;;;;14.19;nan;98895.03;4996839;28;20265;-74
2023/05/03 09:13:02;;;;;;;10.47;8.40;;;;;;;14.25;nan;98916.38;4996503;28;20227;-74
2023/05/03 09:15:29;;;;;;;8.77;7.87;;;;;;;14.38;nan;98899.41;4996586;28;20234;-74
2023/05/03 09:18:09;;;;;;;9.37;8.47;;;;;;;14.41;nan;98897.09;4996483;28;20644;-74
2023/05/03 09:20:37;;;;;;;9.63;8.73;;;;;;;14.49;nan;98899.47;4996384;28;20297;-74
2023/05/03 09:23:04;;;;;;;8.73;7.77;;;;;;;14.65;nan;98901.53;4996447;28;20210;-74
2023/05/03 09:25:50;;;;;;;9.57;8.70;;;;;;;14.80;nan;98893.97;4996369;28;20234;-73
2023/05/03 09:28:18;;;;;;;8.80;7.90;;;;;;;14.94;nan;98892.75;4996419;28;20196;-73
2023/05/03 09:30:46;;;;;;;10.17;8.67;;;;;;;15.06;nan;98893.59;4996368;28;20302;-73
2023/05/03 09:33:18;;;;;;;8.87;7.50;;;;;;;15.46;nan;98886.66;4996465;28;20223;-74
2023/05/03 09:36:04;;;;;;;8.77;7.87;;;;;;;15.56;nan;98889.56;4996183;28;20318;-74
2023/05/03 09:38:33;;;;;;;8.53;7.63;;;;;;;15.56;nan;98880.72;4996293;28;20211;-74
2023/05/03 09:41:01;;;;;;;9.23;8.33;;;;;;;14.72;nan;98885.41;4996345;28;20214;-75
2023/05/03 09:43:27;;;;;;;8.77;7.77;;;;;;;15.41;nan;98883.00;4996143;28;20211;-74
2023/05/03 09:46:08;;;;;;;8.20;7.40;;;;;;;15.17;nan;98884.78;4996014;28;20592;-74
2023/05/03 09:48:36;;;;;;;8.87;7.63;;;;;;;15.61;nan;98876.28;4996595;28;20205;-74
2023/05/03 09:51:04;;;;;;;8.17;7.37;;;;;;;16.06;nan;98873.88;4996114;28;20211;-74
2023/05/03 09:53:32;;;;;;;9.87;8.00;;;;;;;16.29;nan;98885.41;4995843;28;20230;-74
2023/05/03 09:56:01;;;;;;;9.53;8.63;;;;;;;16.25;nan;98881.59;4995067;28;20710;-73
2023/05/03 09:58:29;;;;;;;9.87;7.73;;;;;;;15.80;nan;98871.66;4995174;28;20207;-73
2023/05/03 10:00:57;;;;;;;8.43;7.63;;;;;;;16.21;nan;98882.28;4995590;28;20203;-73
2023/05/03 10:03:40;;;;;;;8.17;7.23;;;;;;;15.91;nan;98882.41;4995300;28;20736;-73
2023/05/03 10:06:19;;;;;;;8.33;7.47;;;;;;;15.90;nan;98875.41;4993620;28;20646;-74
2023/05/03 10:08:54;;;;;;;8.27;6.73;;;;;;;15.56;nan;98880.72;4995060;28;20210;-75
2023/05/03 10:11:25;;;;;;;8.60;7.70;;;;;;;15.59;nan;98882.94;4992501;28;20194;-75
2023/05/03 10:13:52;;;;;;;8.50;7.70;;;;;;;15.53;nan;98879.34;4995340;28;20195;-75
2023/05/03 10:16:26;;;;;;;8.33;7.60;;;;;;;15.04;nan;98871.59;4995527;28;20223;-75
2023/05/03 10:19:28;;;;;;;8.77;7.87;;;;;;;15.28;nan;98870.59;4995378;28;20190;-75
2023/05/03 10:22:02;;;;;;;7.90;7.20;;;;;;;15.71;nan;98871.19;4994686;28;20539;-76
2023/05/03 10:24:29;;;;;;;7.60;6.80;;;;;;;15.87;nan;98870.50;4993494;28;20190;-76
2023/05/03 10:26:56;;;;;;;8.40;6.50;;;;;;;15.77;nan;98867.59;4994663;28;20219;-76
2023/05/03 10:29:31;;;;;;;7.60;6.83;;;;;;;15.21;nan;98866.41;4994366;28;20208;-77
2023/05/03 10:31:57;;;;;;;7.20;6.50;;;;;;;15.83;nan;98871.22;4994748;28;20306;-76
2023/05/03 10:34:31;;;;;;;12.13;10.50;;;;;;;15.48;nan;98859.63;4994828;28;20674;-72
2023/05/03 10:37:00;;;;;;;11.70;10.60;;;;;;;15.78;nan;98858.47;4994758;28;20224;-72
2023/05/03 10:39:27;;;;;;;9.43;6.80;;;;;;;16.13;nan;98853.09;4994742;28;20211;-73
2023/05/03 10:42:05;;;;;;;7.50;6.77;;;;;;;16.28;nan;98848.88;4995067;28;20582;-72
2023/05/03 10:44:51;;;;;;;7.80;6.20;;;;;;;16.81;nan;98846.81;4994612;28;20281;-76
2023/05/03 10:47:25;;;;;;;6.83;6.23;;;;;;;16.84;nan;98848.19;4993687;28;20198;-76
2023/05/03 10:50:16;;;;;;;6.13;5.37;;;;;;;16.50;nan;98854.47;4992617;28;20718;-76
2023/05/03 10:52:42;;;;;;;6.87;5.73;;;;;;;16.41;nan;98853.22;4993796;28;20567;-76
2023/05/03 10:55:14;;;;;;;6.03;5.43;;;;;;;16.18;nan;98850.53;4993894;28;20234;-76
2023/05/03 10:57:45;;;;;;;6.00;5.40;;;;;;;16.37;nan;98844.78;4994337;28;20210;-76
2023/05/03 11:00:27;;;;;;;6.33;5.73;;;;;;;16.11;nan;98847.97;4993800;28;20655;-76
2023/05/03 11:03:09;;;;;;;7.30;6.60;;;;;;;16.43;nan;98843.06;4994340;28;20212;-75
2023/05/03 11:05:36;;;;;;;7.47;6.17;;;;;;;16.73;nan;98841.81;4994288;28;20792;-76
2023/05/03 11:08:10;;;;;;;8.87;6.90;;;;;;;16.13;nan;98829.78;4993988;28;20211;-75
2023/05/03 11:10:36;;;;;;;6.00;5.43;;;;;;;16.34;nan;98841.78;4994863;28;20202;-75
2023/05/03 11:13:03;;;;;;;5.37;4.87;;;;;;;16.77;nan;98823.34;4994522;28;20231;-75
2023/05/03 11:15:31;;;;;;;6.57;5.97;;;;;;;16.72;nan;98826.75;4993909;28;20227;-75
2023/05/03 11:17:57;;;;;;;6.83;6.17;;;;;;;16.50;nan;98822.25;4994106;28;20215;-75
2023/05/03 11:20:24;;;;;;;6.60;6.00;;;;;;;16.92;nan;98819.06;4994083;28;20206;-75
2023/05/03 11:22:51;;;;;;;7.63;5.90;;;;;;;17.02;nan;98816.59;4993850;28;20254;-75
2023/05/03 11:25:18;;;;;;;7.07;6.37;;;;;;;16.41;nan;98810.25;4994164;28;20234;-72
2023/05/03 11:27:46;;;;;;;6.47;5.87;;;;;;;16.55;nan;98809.75;4993593;28;20218;-72
2023/05/03 11:30:13;;;;;;;5.43;4.90;;;;;;;17.05;nan;98804.53;4994405;28;20207;-72
2023/05/03 11:32:42;;;;;;;6.20;5.60;;;;;;;17.40;nan;98805.97;4993689;28;20222;-72
2023/05/03 11:35:09;;;;;;;6.47;5.87;;;;;;;16.96;nan;98801.41;4994277;28;20253;-72
2023/05/03 11:37:37;;;;;;;4.77;4.37;;;;;;;17.23;nan;98802.44;4994171;28;20207;-74
2023/05/03 11:40:05;;;;;;;5.67;4.90;;;;;;;17.08;nan;98814.78;4994584;28;20255;-75
2023/05/03 11:42:31;;;;;;;5.90;5.30;;;;;;;17.06;nan;98809.66;4994311;28;20275;-75
2023/05/03 11:44:58;;;;;;;5.80;5.17;;;;;;;16.92;nan;98804.84;4994988;28;20213;-76
2023/05/03 11:47:25;;;;;;;6.13;5.53;;;;;;;17.16;nan;98801.78;4994606;28;20207;-75
2023/05/03 11:49:57;;;;;;;5.67;5.17;;;;;;;17.34;nan;98804.25;4994882;28;20207;-75
2023/05/03 11:52:26;;;;;;;7.63;5.17;;;;;;;17.31;nan;98810.09;4994721;28;20234;-75
2023/05/03 11:54:53;;;;;;;5.80;5.13;;;;;;;17.07;nan;98800.56;4994335;28;20207;-75
2023/05/03 11:57:21;;;;;;;5.50;5.00;;;;;;;17.17;nan;98798.03;4994461;28;20571;-75